createdAt,value
2023-05-21T00:01:35.342Z,15.37
2023-05-21T00:04:03.529Z,19.83
2023-05-21T00:06:32.580Z,13.20
2023-05-21T00:09:00.632Z,16.80
2023-05-21T00:11:28.588Z,13.23
2023-05-21T00:13:57.924Z,15.30
2023-05-21T00:16:26.823Z,13.23
2023-05-21T00:18:55.678Z,15.17
2023-05-21T00:21:25.990Z,16.27
2023-05-21T00:23:56.371Z,15.33
2023-05-21T00:26:25.123Z,14.47
2023-05-21T00:28:58.733Z,13.53
2023-05-21T00:31:26.742Z,14.20
2023-05-21T00:33:54.731Z,16.43
2023-05-21T00:36:24.032Z,13.20
2023-05-21T00:38:52.623Z,14.10
2023-05-21T00:41:22.767Z,16.47
2023-05-21T00:43:50.761Z,14.73
2023-05-21T00:46:22.300Z,13.70
2023-05-21T00:48:51.275Z,14.27
2023-05-21T00:51:21.821Z,17.03
2023-05-21T00:53:52.506Z,14.10
2023-05-21T00:56:22.742Z,13.83
2023-05-21T00:58:51.951Z,16.83
2023-05-21T01:01:21.392Z,15.23
2023-05-21T01:03:49.452Z,18.20
2023-05-21T01:06:17.449Z,16.40
2023-05-21T01:08:46.615Z,18.70
2023-05-21T01:11:15.803Z,14.30
2023-05-21T01:13:44.887Z,14.07
2023-05-21T01:16:14.047Z,14.27
2023-05-21T01:18:45.180Z,12.93
2023-05-21T01:21:13.820Z,15.00
2023-05-21T01:23:43.231Z,16.13
2023-05-21T01:26:13.010Z,15.30
2023-05-21T01:28:40.971Z,16.17
2023-05-21T01:31:21.054Z,14.70
2023-05-21T01:33:52.674Z,15.93
2023-05-21T01:36:26.245Z,13.87
2023-05-21T01:39:02.039Z,16.77
2023-05-21T01:41:34.145Z,14.83
2023-05-21T01:44:03.254Z,14.80
2023-05-21T01:46:34.328Z,16.47
2023-05-21T01:49:03.018Z,13.97
2023-05-21T01:51:31.461Z,15.23
2023-05-21T01:54:02.248Z,14.63
2023-05-21T01:56:30.207Z,16.73
2023-05-21T01:58:59.446Z,13.67
2023-05-21T02:01:30.431Z,13.63
2023-05-21T02:03:58.870Z,14.70
2023-05-21T02:06:26.892Z,12.07
2023-05-21T02:08:55.669Z,12.43
2023-05-21T02:11:25.313Z,15.23
2023-05-21T02:13:54.435Z,13.47
2023-05-21T02:16:22.453Z,12.97
2023-05-21T02:18:52.297Z,14.47
2023-05-21T02:21:21.125Z,16.70
2023-05-21T02:23:49.586Z,15.00
2023-05-21T02:26:18.039Z,11.53
2023-05-21T02:28:48.162Z,16.00
2023-05-21T02:31:16.264Z,14.23
2023-05-21T02:33:44.265Z,15.53
2023-05-21T02:36:13.382Z,16.20
2023-05-21T02:38:43.763Z,15.27
2023-05-21T02:41:12.167Z,14.00
2023-05-21T02:43:40.973Z,15.20
2023-05-21T02:46:10.402Z,18.67
2023-05-21T02:48:38.417Z,14.70
2023-05-21T02:51:07.204Z,14.30
2023-05-21T02:53:35.264Z,16.77
2023-05-21T02:56:03.690Z,14.00
2023-05-21T02:58:31.999Z,15.20
2023-05-21T03:00:59.944Z,14.53
2023-05-21T03:03:30.607Z,13.63
2023-05-21T03:05:58.704Z,15.67
2023-05-21T03:08:26.638Z,16.57
2023-05-21T03:10:55.140Z,17.60
2023-05-21T03:13:23.210Z,14.43
2023-05-21T03:15:56.100Z,16.47
2023-05-21T03:18:24.110Z,12.73
2023-05-21T03:20:54.398Z,13.20
2023-05-21T03:23:22.890Z,17.93
2023-05-21T03:25:53.512Z,15.90
2023-05-21T03:28:22.174Z,15.73
2023-05-21T03:30:52.150Z,16.83
2023-05-21T03:33:47.426Z,16.27
2023-05-21T03:36:28.387Z,13.93
2023-05-21T03:38:57.791Z,13.27
2023-05-21T03:41:26.153Z,14.20
2023-05-21T03:44:00.221Z,11.63
2023-05-21T03:46:33.636Z,13.43
2023-05-21T03:49:17.389Z,12.97
2023-05-21T03:51:46.718Z,15.47
2023-05-21T03:54:17.959Z,14.40
2023-05-21T03:56:46.974Z,16.23
2023-05-21T03:59:14.884Z,15.07
2023-05-21T04:01:45.339Z,21.20
2023-05-21T04:04:16.340Z,13.10
2023-05-21T04:06:44.410Z,13.27
2023-05-21T04:09:15.052Z,14.80
2023-05-21T04:11:42.953Z,13.67
2023-05-21T04:14:11.530Z,12.97
2023-05-21T04:16:39.676Z,12.57
2023-05-21T04:19:07.949Z,24.13
2023-05-21T04:21:36.305Z,12.77
2023-05-21T04:24:05.158Z,12.30
2023-05-21T04:26:56.075Z,14.00
2023-05-21T04:29:25.847Z,12.33
2023-05-21T04:31:53.978Z,14.00
2023-05-21T04:34:21.932Z,13.53
2023-05-21T04:36:49.932Z,12.83
2023-05-21T04:39:18.088Z,14.30
2023-05-21T04:41:45.996Z,14.07
2023-05-21T04:44:15.794Z,12.40
2023-05-21T04:46:46.795Z,12.40
2023-05-21T04:49:15.356Z,13.13
2023-05-21T04:51:43.323Z,13.73
2023-05-21T04:54:11.256Z,14.50
2023-05-21T04:56:39.156Z,12.43
2023-05-21T04:59:07.299Z,11.30
2023-05-21T05:01:38.648Z,13.07
2023-05-21T05:04:06.952Z,14.27
2023-05-21T05:06:34.982Z,12.80
2023-05-21T05:09:02.894Z,13.90
2023-05-21T05:11:31.936Z,13.00
2023-05-21T05:13:59.889Z,12.03
2023-05-21T05:16:29.663Z,13.23
2023-05-21T05:18:59.793Z,16.33
2023-05-21T05:21:27.752Z,12.83
2023-05-21T05:23:56.008Z,13.73
2023-05-21T05:26:28.020Z,11.23
2023-05-21T05:28:56.837Z,14.40
2023-05-21T05:31:25.127Z,15.33
2023-05-21T05:33:54.366Z,13.87
2023-05-21T05:36:26.242Z,13.97
2023-05-21T05:38:54.219Z,13.37
2023-05-21T05:41:23.268Z,15.90
2023-05-21T05:43:51.664Z,15.37
2023-05-21T05:46:22.181Z,13.20
2023-05-21T05:48:51.825Z,14.20
2023-05-21T05:51:19.785Z,12.87
2023-05-21T05:53:49.078Z,14.00
2023-05-21T05:56:17.935Z,12.67
2023-05-21T05:58:45.941Z,11.23
2023-05-21T06:01:17.828Z,13.77
2023-05-21T06:03:46.405Z,12.90
2023-05-21T06:06:19.478Z,13.40
2023-05-21T06:08:49.758Z,12.90
2023-05-21T06:11:19.191Z,13.70
2023-05-21T06:13:47.238Z,12.20
2023-05-21T06:16:17.591Z,12.90
2023-05-21T06:18:45.637Z,14.47
2023-05-21T06:21:13.657Z,13.77
2023-05-21T06:23:41.767Z,14.17
2023-05-21T06:26:12.150Z,15.97
2023-05-21T06:28:41.250Z,12.00
2023-05-21T06:31:11.765Z,14.10
2023-05-21T06:33:40.460Z,13.73
2023-05-21T06:36:09.327Z,14.93
2023-05-21T06:38:38.199Z,14.60
2023-05-21T06:41:06.194Z,13.80
2023-05-21T06:43:51.528Z,12.43
2023-05-21T06:46:38.180Z,10.03
2023-05-21T06:49:09.240Z,12.80
2023-05-21T06:51:37.251Z,13.43
2023-05-21T06:54:06.515Z,14.23
2023-05-21T06:56:36.211Z,12.27
2023-05-21T06:59:05.457Z,12.07
2023-05-21T07:01:34.346Z,9.47
2023-05-21T07:04:03.182Z,9.33
2023-05-21T07:06:32.278Z,11.50
2023-05-21T07:09:00.264Z,11.60
2023-05-21T07:11:29.949Z,10.00
2023-05-21T07:14:01.253Z,9.90
2023-05-21T07:16:33.382Z,13.80
2023-05-21T07:19:01.456Z,10.57
2023-05-21T07:21:29.786Z,11.57
2023-05-21T07:23:57.851Z,12.37
2023-05-21T07:26:26.310Z,10.17
2023-05-21T07:28:54.358Z,10.47
2023-05-21T07:31:22.411Z,11.03
2023-05-21T07:33:54.155Z,8.10
2023-05-21T07:36:27.268Z,12.13
2023-05-21T07:38:55.585Z,12.30
2023-05-21T07:41:23.862Z,6.90
2023-05-21T07:43:52.832Z,12.10
2023-05-21T07:46:21.495Z,9.77
2023-05-21T07:48:55.596Z,8.00
2023-05-21T07:51:23.741Z,8.97
2023-05-21T07:53:53.785Z,8.80
2023-05-21T07:56:29.424Z,9.40
2023-05-21T07:58:58.014Z,8.20
2023-05-21T08:01:29.538Z,12.03
2023-05-21T08:04:00.717Z,7.80
2023-05-21T08:06:29.018Z,8.40
2023-05-21T08:08:57.390Z,7.60
2023-05-21T08:11:26.930Z,8.60
2023-05-21T08:13:55.528Z,8.97
2023-05-21T08:16:24.977Z,8.83
2023-05-21T08:18:53.123Z,9.80
2023-05-21T08:21:22.639Z,8.80
2023-05-21T08:23:54.015Z,18.90
2023-05-21T08:26:22.181Z,12.60
2023-05-21T08:28:50.118Z,9.83
2023-05-21T08:31:19.333Z,6.90
2023-05-21T08:33:51.889Z,7.87
2023-05-21T08:36:26.011Z,6.73
2023-05-21T08:38:59.808Z,6.90
2023-05-21T08:41:37.873Z,7.80
2023-05-21T08:44:12.545Z,6.50
2023-05-21T08:46:42.776Z,6.47
2023-05-21T08:49:13.762Z,7.80
2023-05-21T08:51:44.481Z,7.80
2023-05-21T08:54:14.051Z,8.10
2023-05-21T08:56:47.019Z,8.77
2023-05-21T08:59:16.236Z,10.03
2023-05-21T09:01:46.055Z,10.67
2023-05-21T09:04:27.660Z,8.30
2023-05-21T09:06:59.253Z,9.87
2023-05-21T09:09:52.814Z,6.97
2023-05-21T09:12:21.366Z,7.07
2023-05-21T09:14:50.207Z,7.63
2023-05-21T09:17:21.373Z,10.50
2023-05-21T09:20:12.354Z,9.00
2023-05-21T09:22:46.767Z,7.10
2023-05-21T09:25:17.005Z,9.27
2023-05-21T09:27:45.588Z,8.80
2023-05-21T09:30:15.471Z,10.37
2023-05-21T09:32:45.638Z,9.63
2023-05-21T09:35:15.510Z,8.50
2023-05-21T09:37:48.411Z,7.93
2023-05-21T09:40:18.032Z,11.93
2023-05-21T09:42:48.544Z,8.03
2023-05-21T09:45:20.424Z,9.33
2023-05-21T09:47:52.390Z,7.40
2023-05-21T09:50:24.914Z,15.67
2023-05-21T09:52:55.538Z,9.60
2023-05-21T09:55:24.323Z,11.30
2023-05-21T09:57:53.326Z,11.60
2023-05-21T10:00:22.719Z,8.67
2023-05-21T10:02:55.044Z,12.93
2023-05-21T10:05:27.127Z,21.47
2023-05-21T10:08:02.031Z,11.73
2023-05-21T10:10:31.167Z,11.03
2023-05-21T10:13:01.740Z,8.00
2023-05-21T10:15:33.323Z,8.20
2023-05-21T10:18:02.852Z,7.90
2023-05-21T10:20:31.122Z,10.17
2023-05-21T10:23:00.934Z,8.47
2023-05-21T10:25:29.697Z,7.57
2023-05-21T10:27:58.485Z,8.83
2023-05-21T10:30:26.568Z,11.83
2023-05-21T10:32:56.988Z,11.00
2023-05-21T10:35:25.585Z,7.33
2023-05-21T10:37:55.245Z,7.83
2023-05-21T10:40:24.675Z,8.70
2023-05-21T10:43:14.472Z,9.80
2023-05-21T10:46:00.622Z,9.97
2023-05-21T10:48:38.292Z,10.17
2023-05-21T10:51:23.571Z,9.97
2023-05-21T10:54:14.724Z,10.93
2023-05-21T10:56:54.070Z,7.30
2023-05-21T10:59:36.512Z,7.13
2023-05-21T11:02:06.381Z,7.10
2023-05-21T11:04:39.737Z,11.30
2023-05-21T11:07:07.739Z,9.63
2023-05-21T11:09:35.852Z,7.73
2023-05-21T11:12:05.616Z,8.73
2023-05-21T11:14:39.840Z,6.80
2023-05-21T11:17:17.006Z,9.00
2023-05-21T11:19:47.407Z,22.23
2023-05-21T11:22:23.865Z,13.53
2023-05-21T11:24:55.621Z,8.03
2023-05-21T11:27:36.646Z,11.40
2023-05-21T11:30:06.700Z,7.70
2023-05-21T11:32:38.150Z,7.50
2023-05-21T11:35:07.143Z,8.20
2023-05-21T11:37:40.654Z,7.60
2023-05-21T11:40:25.991Z,7.00
2023-05-21T11:42:57.157Z,6.63
2023-05-21T11:45:31.921Z,9.80
2023-05-21T11:48:00.089Z,9.37
2023-05-21T11:50:30.573Z,6.73
2023-05-21T11:52:59.867Z,7.80
2023-05-21T11:55:28.111Z,7.73
2023-05-21T11:57:59.434Z,7.53
2023-05-21T12:00:27.466Z,7.50
2023-05-21T12:02:57.261Z,7.97
2023-05-21T12:05:27.116Z,9.20
2023-05-21T12:07:56.459Z,7.60
2023-05-21T12:10:24.796Z,7.17
2023-05-21T12:12:56.353Z,12.53
2023-05-21T12:15:28.016Z,6.67
2023-05-21T12:17:57.871Z,6.37
2023-05-21T12:20:28.110Z,7.07
2023-05-21T12:22:58.888Z,7.87
2023-05-21T12:25:27.473Z,9.50
2023-05-21T12:27:58.779Z,8.70
2023-05-21T12:30:29.638Z,6.50
2023-05-21T12:32:59.624Z,6.83
2023-05-21T12:35:27.755Z,7.40
2023-05-21T12:37:55.794Z,6.40
2023-05-21T12:40:35.428Z,7.93
2023-05-21T12:43:03.730Z,9.07
2023-05-21T12:45:33.962Z,7.20
2023-05-21T12:48:02.791Z,5.90
2023-05-21T12:50:30.888Z,8.93
2023-05-21T12:52:59.800Z,7.60
2023-05-21T12:55:27.708Z,8.07
2023-05-21T12:58:04.482Z,6.43
2023-05-21T13:00:34.701Z,6.80
2023-05-21T13:03:04.440Z,6.40
2023-05-21T13:05:32.780Z,6.80
2023-05-21T13:08:00.765Z,7.53
2023-05-21T13:10:28.660Z,6.47
2023-05-21T13:12:56.633Z,6.10
2023-05-21T13:15:24.621Z,6.10
2023-05-21T13:17:56.072Z,7.40
2023-05-21T13:20:27.407Z,7.27
2023-05-21T13:22:55.842Z,7.77
2023-05-21T13:25:28.471Z,7.07
2023-05-21T13:27:57.253Z,7.97
2023-05-21T13:30:25.177Z,8.60
2023-05-21T13:32:54.695Z,10.23
2023-05-21T13:35:23.316Z,7.00
2023-05-21T13:37:51.285Z,7.20
2023-05-21T13:40:19.495Z,11.63
2023-05-21T13:42:49.138Z,7.70
2023-05-21T13:45:18.587Z,9.20
2023-05-21T13:47:47.960Z,8.70
2023-05-21T13:50:18.045Z,8.73
2023-05-21T13:52:46.107Z,10.03
2023-05-21T13:55:15.829Z,6.97
2023-05-21T13:57:44.301Z,10.30
2023-05-21T14:00:15.386Z,10.70
2023-05-21T14:02:43.905Z,9.40
2023-05-21T14:05:12.480Z,13.70
2023-05-21T14:07:42.597Z,8.60
2023-05-21T14:10:11.227Z,8.40
2023-05-21T14:12:40.586Z,9.30
2023-05-21T14:15:09.286Z,9.67
2023-05-21T14:17:37.314Z,10.60
2023-05-21T14:20:06.327Z,9.90
2023-05-21T14:22:34.194Z,8.27
2023-05-21T14:25:04.006Z,9.10
2023-05-21T14:27:32.062Z,10.70
2023-05-21T14:30:00.076Z,13.80
2023-05-21T14:32:28.056Z,8.40
2023-05-21T14:34:56.798Z,7.47
2023-05-21T14:37:24.790Z,8.97
2023-05-21T14:39:52.729Z,10.50
2023-05-21T14:42:22.726Z,10.07
2023-05-21T14:44:50.679Z,8.57
2023-05-21T14:47:18.870Z,12.30
2023-05-21T14:49:46.873Z,8.70
2023-05-21T14:52:14.724Z,8.90
2023-05-21T14:54:42.738Z,10.43
2023-05-21T14:57:10.798Z,11.00
2023-05-21T14:59:40.113Z,10.57
2023-05-21T15:02:08.005Z,16.13
2023-05-21T15:04:35.973Z,8.43
2023-05-21T15:07:03.942Z,11.17
2023-05-21T15:09:31.987Z,10.40
2023-05-21T15:11:59.906Z,10.80
2023-05-21T15:14:27.855Z,14.03
2023-05-21T15:16:57.106Z,11.63
2023-05-21T15:19:25.174Z,10.73
2023-05-21T15:21:53.444Z,11.47
2023-05-21T15:24:21.428Z,10.60
2023-05-21T15:26:49.747Z,10.23
2023-05-21T15:29:17.692Z,16.57
2023-05-21T15:31:45.682Z,9.23
2023-05-21T15:34:15.123Z,10.13
2023-05-21T15:36:43.057Z,11.87
2023-05-21T15:39:11.001Z,10.40
2023-05-21T15:41:38.907Z,15.23
2023-05-21T15:44:06.893Z,14.37
2023-05-21T15:46:34.992Z,16.80
2023-05-21T15:49:03.000Z,9.53
2023-05-21T15:51:32.249Z,11.37
2023-05-21T15:54:00.507Z,12.00
2023-05-21T15:56:28.378Z,10.50
2023-05-21T15:58:58.664Z,8.50
2023-05-21T16:01:28.215Z,9.70
2023-05-21T16:03:56.399Z,13.70
2023-05-21T16:06:24.448Z,8.70
2023-05-21T16:08:53.761Z,12.70
2023-05-21T16:11:22.310Z,7.27
2023-05-21T16:13:50.319Z,11.43
2023-05-21T16:16:18.203Z,7.63
2023-05-21T16:18:46.223Z,10.60
2023-05-21T16:21:14.569Z,8.23
2023-05-21T16:23:42.774Z,7.40
2023-05-21T16:26:12.391Z,7.43
2023-05-21T16:28:40.337Z,7.63
2023-05-21T16:31:08.642Z,6.93
2023-05-21T16:33:36.731Z,7.37
2023-05-21T16:36:04.816Z,9.50
2023-05-21T16:38:32.849Z,8.40
2023-05-21T16:41:01.002Z,11.03
2023-05-21T16:43:30.259Z,9.17
2023-05-21T16:45:58.209Z,7.70
2023-05-21T16:48:26.183Z,7.10
2023-05-21T16:50:54.190Z,8.03
2023-05-21T16:53:22.316Z,6.77
2023-05-21T16:55:50.257Z,8.20
2023-05-21T16:58:19.070Z,8.00
2023-05-21T17:00:48.921Z,7.80
2023-05-21T17:03:17.209Z,7.60
2023-05-21T17:05:45.325Z,8.40
2023-05-21T17:08:13.364Z,8.70
2023-05-21T17:10:41.287Z,9.90
2023-05-21T17:13:20.789Z,10.70
2023-05-21T17:15:52.677Z,9.67
2023-05-21T17:18:20.808Z,9.10
2023-05-21T17:20:48.790Z,10.73
2023-05-21T17:23:16.940Z,9.90
2023-05-21T17:25:45.043Z,10.53
2023-05-21T17:28:13.028Z,12.27
2023-05-21T17:30:41.142Z,12.43
2023-05-21T17:33:10.762Z,11.23
2023-05-21T17:35:39.268Z,9.43
2023-05-21T17:38:08.084Z,12.97
2023-05-21T17:40:36.301Z,10.47
2023-05-21T17:43:07.055Z,8.90
2023-05-21T17:45:35.201Z,13.57
2023-05-21T17:48:03.365Z,9.10
2023-05-21T17:50:34.178Z,7.80
2023-05-21T17:53:02.145Z,7.33
2023-05-21T17:55:30.002Z,9.90
2023-05-21T17:57:57.895Z,8.00
2023-05-21T18:00:25.879Z,8.20
2023-05-21T18:02:53.971Z,9.17
2023-05-21T18:05:22.816Z,9.73
2023-05-21T18:07:52.601Z,8.60
2023-05-21T18:10:23.390Z,9.27
2023-05-21T18:12:51.409Z,9.13
2023-05-21T18:15:19.396Z,8.03
2023-05-21T18:17:48.309Z,7.97
2023-05-21T18:20:16.294Z,8.60
2023-05-21T18:22:45.004Z,7.53
2023-05-21T18:25:14.309Z,8.50
2023-05-21T18:27:42.229Z,9.23
2023-05-21T18:30:10.830Z,9.83
2023-05-21T18:32:39.572Z,8.13
2023-05-21T18:35:10.684Z,11.60
2023-05-21T18:37:42.165Z,9.70
2023-05-21T18:40:11.349Z,7.83
2023-05-21T18:42:40.593Z,7.53
2023-05-21T18:45:10.235Z,9.43
2023-05-21T18:47:40.230Z,10.40
2023-05-21T18:50:10.148Z,10.00
2023-05-21T18:52:38.100Z,8.27
2023-05-21T18:55:07.061Z,8.70
2023-05-21T18:57:35.127Z,10.00
2023-05-21T19:00:05.565Z,8.10
2023-05-21T19:02:33.901Z,8.43
2023-05-21T19:05:02.899Z,10.90
2023-05-21T19:07:30.946Z,7.77
2023-05-21T19:10:00.130Z,9.77
2023-05-21T19:12:29.404Z,8.67
2023-05-21T19:14:57.343Z,7.90
2023-05-21T19:17:26.788Z,8.23
2023-05-21T19:19:56.134Z,6.80
2023-05-21T19:22:24.361Z,9.20
2023-05-21T19:24:52.877Z,11.30
2023-05-21T19:27:21.417Z,10.07
2023-05-21T19:29:49.642Z,7.53
2023-05-21T19:32:17.684Z,7.73
2023-05-21T19:34:48.312Z,8.87
2023-05-21T19:37:16.716Z,9.30
2023-05-21T19:39:44.820Z,8.70
2023-05-21T19:42:12.974Z,8.50
2023-05-21T19:44:41.399Z,11.73
2023-05-21T19:47:09.919Z,8.60
2023-05-21T19:49:37.998Z,10.53
2023-05-21T19:52:07.415Z,9.77
2023-05-21T19:54:35.687Z,10.50
2023-05-21T19:57:03.915Z,10.60
2023-05-21T19:59:31.922Z,8.97
2023-05-21T20:02:00.099Z,9.57
2023-05-21T20:04:28.148Z,8.87
2023-05-21T20:06:56.106Z,8.27
2023-05-21T20:09:25.600Z,8.83
2023-05-21T20:11:53.502Z,8.70
2023-05-21T20:14:21.438Z,9.20
2023-05-21T20:16:49.467Z,9.00
2023-05-21T20:19:17.429Z,10.20
2023-05-21T20:21:45.514Z,12.37
2023-05-21T20:24:13.539Z,10.07
2023-05-21T20:26:44.987Z,10.47
2023-05-21T20:29:13.087Z,7.73
2023-05-21T20:31:41.089Z,7.47
2023-05-21T20:34:10.438Z,15.67
2023-05-21T20:36:40.313Z,9.90
2023-05-21T20:39:09.210Z,8.03
2023-05-21T20:41:37.688Z,11.57
2023-05-21T20:44:07.883Z,9.60
2023-05-21T20:46:38.263Z,8.90
2023-05-21T20:49:06.788Z,7.73
2023-05-21T20:51:34.866Z,8.00
2023-05-21T20:54:02.810Z,9.97
2023-05-21T20:56:41.602Z,10.33
2023-05-21T20:59:12.955Z,12.47
2023-05-21T21:01:41.736Z,9.33
2023-05-21T21:04:10.048Z,9.00
2023-05-21T21:06:40.151Z,11.00
2023-05-21T21:09:08.453Z,9.03
2023-05-21T21:11:36.903Z,9.47
2023-05-21T21:14:04.920Z,8.53
2023-05-21T21:16:34.490Z,9.33
2023-05-21T21:19:02.787Z,11.40
2023-05-21T21:21:31.761Z,9.73
2023-05-21T21:23:59.779Z,8.80
2023-05-21T21:26:27.786Z,10.10
2023-05-21T21:28:56.319Z,9.23
2023-05-21T21:31:24.929Z,12.37
2023-05-21T21:33:54.414Z,10.50
2023-05-21T21:36:22.402Z,10.00
2023-05-21T21:38:50.471Z,10.50
2023-05-21T21:41:20.204Z,11.50
2023-05-21T21:43:48.881Z,13.40
2023-05-21T21:46:16.840Z,10.23
2023-05-21T21:48:44.914Z,11.17
2023-05-21T21:51:15.562Z,10.27
2023-05-21T21:53:43.966Z,11.23
2023-05-21T21:56:12.055Z,11.20
2023-05-21T21:58:39.983Z,12.60
2023-05-21T22:01:07.966Z,11.27
2023-05-21T22:03:35.975Z,10.87
2023-05-21T22:06:03.869Z,9.33
2023-05-21T22:08:33.161Z,9.90
2023-05-21T22:11:01.937Z,9.10
2023-05-21T22:13:30.228Z,8.90
2023-05-21T22:15:58.416Z,11.03
2023-05-21T22:18:39.529Z,10.23
2023-05-21T22:21:09.571Z,14.30
2023-05-21T22:23:39.667Z,11.27
2023-05-21T22:26:07.824Z,11.10
2023-05-21T22:28:35.960Z,13.80
2023-05-21T22:31:04.103Z,9.43
2023-05-21T22:33:32.299Z,11.53
2023-05-21T22:36:00.279Z,9.20
2023-05-21T22:38:28.422Z,10.57
2023-05-21T22:40:58.037Z,11.37
2023-05-21T22:43:26.729Z,13.73
2023-05-21T22:45:54.754Z,10.73
2023-05-21T22:48:23.052Z,13.73
2023-05-21T22:50:54.221Z,9.70
2023-05-21T22:53:23.356Z,9.80
2023-05-21T22:55:51.393Z,11.60
2023-05-21T22:58:21.998Z,9.40
2023-05-21T23:00:50.307Z,11.30
2023-05-21T23:03:18.554Z,9.13
2023-05-21T23:05:46.732Z,12.50
2023-05-21T23:08:14.841Z,10.20
2023-05-21T23:10:43.000Z,10.20
2023-05-21T23:13:12.782Z,9.40
2023-05-21T23:15:43.729Z,14.37
2023-05-21T23:18:12.458Z,9.80
2023-05-21T23:20:41.168Z,11.73
2023-05-21T23:23:10.132Z,12.23
2023-05-21T23:25:37.998Z,9.27
2023-05-21T23:28:06.175Z,9.07
2023-05-21T23:30:34.106Z,12.47
2023-05-21T23:33:06.623Z,9.97
2023-05-21T23:35:34.611Z,12.03
2023-05-21T23:38:02.508Z,10.97
2023-05-21T23:40:30.464Z,8.60
2023-05-21T23:42:58.449Z,9.17
2023-05-21T23:45:26.481Z,10.33
2023-05-21T23:47:54.814Z,9.63
2023-05-21T23:50:25.910Z,10.73
2023-05-21T23:52:53.937Z,10.33
2023-05-21T23:55:21.956Z,12.47
2023-05-21T23:57:49.895Z,13.50
